sensor_id;sensor_type;location;lat;lon;timestamp;pressure;altitude;pressure_sealevel;temperature;humidity
28354;BME280;15603;50.878;8.036;2023-02-20T00:00:24;144566.13;;;5.51;100.00
28354;BME280;15603;50.878;8.036;2023-02-20T00:02:52;144452.34;;;5.03;100.00
28354;BME280;15603;50.878;8.036;2023-02-20T00:05:20;144558.84;;;5.48;100.00
28354;BME280;15603;50.878;8.036;2023-02-20T00:07:47;144547.97;;;5.43;100.00
28354;BME280;15603;50.878;8.036;2023-02-20T00:10:14;144523.72;;;5.33;100.00
28354;BME280;15603;50.878;8.036;2023-02-20T00:12:42;144512.84;;;5.28;100.00
28354;BME280;15603;50.878;8.036;2023-02-20T00:15:12;144466.84;;;5.09;100.00
28354;BME280;15603;50.878;8.036;2023-02-20T00:17:41;144471.69;;;5.11;100.00
28354;BME280;15603;50.878;8.036;2023-02-20T00:20:09;144459.56;;;5.06;100.00
28354;BME280;15603;50.878;8.036;2023-02-20T00:22:37;144466.84;;;5.09;100.00
28354;BME280;15603;50.878;8.036;2023-02-20T00:25:04;144549.19;;;5.44;100.00
28354;BME280;15603;50.878;8.036;2023-02-20T00:27:31;144527.38;;;5.35;100.00
28354;BME280;15603;50.878;8.036;2023-02-20T00:29:58;144462.00;;;5.07;100.00
28354;BME280;15603;50.878;8.036;2023-02-20T00:32:25;144445.06;;;5.00;100.00
28354;BME280;15603;50.878;8.036;2023-02-20T00:34:52;144299.81;;;4.38;100.00
28354;BME280;15603;50.878;8.036;2023-02-20T00:37:19;144385.75;;;4.75;100.00
28354;BME280;15603;50.878;8.036;2023-02-20T00:39:46;144443.84;;;4.99;100.00
28354;BME280;15603;50.878;8.036;2023-02-20T00:42:13;144426.91;;;4.92;100.00
28354;BME280;15603;50.878;8.036;2023-02-20T00:44:40;144416.00;;;4.87;100.00
28354;BME280;15603;50.878;8.036;2023-02-20T00:47:07;144372.44;;;4.69;100.00
28354;BME280;15603;50.878;8.036;2023-02-20T00:49:34;144399.06;;;4.80;100.00
28354;BME280;15603;50.878;8.036;2023-02-20T00:52:13;144382.09;;;4.73;100.00
28354;BME280;15603;50.878;8.036;2023-02-20T00:54:40;144376.06;;;4.70;100.00
28354;BME280;15603;50.878;8.036;2023-02-20T00:57:08;144379.69;;;4.72;100.00
28354;BME280;15603;50.878;8.036;2023-02-20T00:59:35;144419.66;;;4.89;100.00
28354;BME280;15603;50.878;8.036;2023-02-20T01:02:02;144442.66;;;4.99;100.00
28354;BME280;15603;50.878;8.036;2023-02-20T01:04:29;144477.72;;;5.14;100.00
28354;BME280;15603;50.878;8.036;2023-02-20T01:06:56;144483.81;;;5.16;100.00
28354;BME280;15603;50.878;8.036;2023-02-20T01:09:23;144489.84;;;5.19;100.00
28354;BME280;15603;50.878;8.036;2023-02-20T01:11:52;144505.59;;;5.25;100.00
28354;BME280;15603;50.878;8.036;2023-02-20T01:14:20;144512.84;;;5.28;100.00
28354;BME280;15603;50.878;8.036;2023-02-20T01:16:49;144442.66;;;4.99;100.00
28354;BME280;15603;50.878;8.036;2023-02-20T01:19:19;144512.84;;;5.28;100.00
28354;BME280;15603;50.878;8.036;2023-02-20T01:21:46;144544.34;;;5.42;100.00
28354;BME280;15603;50.878;8.036;2023-02-20T01:24:17;144546.78;;;5.43;100.00
28354;BME280;15603;50.878;8.036;2023-02-20T01:26:47;144556.47;;;5.47;100.00
28354;BME280;15603;50.878;8.036;2023-02-20T01:29:16;144563.69;;;5.50;100.00
28354;BME280;15603;50.878;8.036;2023-02-20T01:31:50;144570.97;;;5.53;100.00
28354;BME280;15603;50.878;8.036;2023-02-20T01:34:18;144411.19;;;4.85;100.00
28354;BME280;15603;50.878;8.036;2023-02-20T01:36:50;144584.31;;;5.59;100.00
28354;BME280;15603;50.878;8.036;2023-02-20T01:39:19;144602.47;;;5.66;100.00
28354;BME280;15603;50.878;8.036;2023-02-20T01:41:49;144609.72;;;5.69;100.00
28354;BME280;15603;50.878;8.036;2023-02-20T01:44:21;144586.72;;;5.60;100.00
28354;BME280;15603;50.878;8.036;2023-02-20T01:46:54;144621.84;;;5.75;100.00
28354;BME280;15603;50.878;8.036;2023-02-20T01:49:50;144619.44;;;5.74;100.00
28354;BME280;15603;50.878;8.036;2023-02-20T01:52:29;144614.56;;;5.71;100.00
28354;BME280;15603;50.878;8.036;2023-02-20T01:55:13;144596.38;;;5.64;100.00
28354;BME280;15603;50.878;8.036;2023-02-20T01:57:44;144629.13;;;5.78;100.00
28354;BME280;15603;50.878;8.036;2023-02-20T02:00:18;144629.13;;;5.78;100.00
28354;BME280;15603;50.878;8.036;2023-02-20T02:02:51;144624.28;;;5.76;100.00
28354;BME280;15603;50.878;8.036;2023-02-20T02:05:20;144619.44;;;5.74;100.00
28354;BME280;15603;50.878;8.036;2023-02-20T02:07:51;144623.03;;;5.75;100.00
28354;BME280;15603;50.878;8.036;2023-02-20T02:10:23;144629.13;;;5.78;100.00
28354;BME280;15603;50.878;8.036;2023-02-20T02:12:53;144629.13;;;5.78;100.00
28354;BME280;15603;50.878;8.036;2023-02-20T02:15:22;144629.13;;;5.78;100.00
28354;BME280;15603;50.878;8.036;2023-02-20T02:18:02;144630.31;;;5.78;100.00
28354;BME280;15603;50.878;8.036;2023-02-20T02:23:48;144627.88;;;5.77;100.00
28354;BME280;15603;50.878;8.036;2023-02-20T02:26:41;144614.56;;;5.71;100.00
28354;BME280;15603;50.878;8.036;2023-02-20T02:29:36;144501.97;;;5.24;100.00
28354;BME280;15603;50.878;8.036;2023-02-20T02:35:17;144590.34;;;5.61;100.00
28354;BME280;15603;50.878;8.036;2023-02-20T02:38:01;144625.47;;;5.76;100.00
28354;BME280;15603;50.878;8.036;2023-02-20T02:41:39;144508.00;;;5.26;100.00
28354;BME280;15603;50.878;8.036;2023-02-20T02:43:59;144587.94;;;5.60;100.00
28354;BME280;15603;50.878;8.036;2023-02-20T02:46:42;144594.00;;;5.63;100.00
28354;BME280;15603;50.878;8.036;2023-02-20T02:49:29;144544.34;;;5.42;100.00
28354;BME280;15603;50.878;8.036;2023-02-20T02:51:58;144614.56;;;5.71;100.00
28354;BME280;15603;50.878;8.036;2023-02-20T02:54:27;144619.44;;;5.74;100.00
28354;BME280;15603;50.878;8.036;2023-02-20T02:57:23;144613.34;;;5.71;100.00
28354;BME280;15603;50.878;8.036;2023-02-20T02:59:56;144592.78;;;5.62;100.00
28354;BME280;15603;50.878;8.036;2023-02-20T03:02:30;144578.22;;;5.56;100.00
28354;BME280;15603;50.878;8.036;2023-02-20T03:05:00;144563.69;;;5.50;100.00
28354;BME280;15603;50.878;8.036;2023-02-20T03:07:32;144563.69;;;5.50;100.00
28354;BME280;15603;50.878;8.036;2023-02-20T03:10:05;144554.00;;;5.46;100.00
28354;BME280;15603;50.878;8.036;2023-02-20T03:12:39;144372.44;;;4.69;100.00
28354;BME280;15603;50.878;8.036;2023-02-20T03:15:15;144522.53;;;5.32;100.00
28354;BME280;15603;50.878;8.036;2023-02-20T03:20:47;144367.59;;;4.67;100.00
28354;BME280;15603;50.878;8.036;2023-02-20T03:23:29;144448.69;;;5.01;100.00
28354;BME280;15603;50.878;8.036;2023-02-20T03:26:02;144469.28;;;5.10;100.00
28354;BME280;15603;50.878;8.036;2023-02-20T03:28:35;144435.38;;;4.96;100.00
28354;BME280;15603;50.878;8.036;2023-02-20T03:31:14;144432.97;;;4.95;100.00
28354;BME280;15603;50.878;8.036;2023-02-20T03:33:57;144439.00;;;4.97;100.00
28354;BME280;15603;50.878;8.036;2023-02-20T03:36:52;144408.72;;;4.84;100.00
28354;BME280;15603;50.878;8.036;2023-02-20T03:39:43;144442.66;;;4.99;100.00
28354;BME280;15603;50.878;8.036;2023-02-20T03:42:34;144406.34;;;4.83;100.00
28354;BME280;15603;50.878;8.036;2023-02-20T03:45:32;144411.19;;;4.85;100.00
28354;BME280;15603;50.878;8.036;2023-02-20T03:48:09;144383.34;;;4.74;100.00
28354;BME280;15603;50.878;8.036;2023-02-20T03:50:37;144386.94;;;4.75;100.00
28354;BME280;15603;50.878;8.036;2023-02-20T03:53:04;144365.19;;;4.66;100.00
28354;BME280;15603;50.878;8.036;2023-02-20T03:55:32;144370.03;;;4.68;100.00
28354;BME280;15603;50.878;8.036;2023-02-20T03:58:07;144246.56;;;4.16;100.00
28354;BME280;15603;50.878;8.036;2023-02-20T04:00:41;144363.94;;;4.65;100.00
28354;BME280;15603;50.878;8.036;2023-02-20T04:03:16;144280.47;;;4.30;100.00
28354;BME280;15603;50.878;8.036;2023-02-20T04:05:51;144372.44;;;4.69;100.00
28354;BME280;15603;50.878;8.036;2023-02-20T04:08:29;144365.19;;;4.66;100.00
28354;BME280;15603;50.878;8.036;2023-02-20T04:11:09;144348.25;;;4.59;100.00
28354;BME280;15603;50.878;8.036;2023-02-20T04:13:38;144326.44;;;4.49;100.00
28354;BME280;15603;50.878;8.036;2023-02-20T04:16:06;144327.66;;;4.50;100.00
28354;BME280;15603;50.878;8.036;2023-02-20T04:18:34;144311.94;;;4.43;100.00
28354;BME280;15603;50.878;8.036;2023-02-20T04:21:09;144315.56;;;4.45;100.00
28354;BME280;15603;50.878;8.036;2023-02-20T04:23:42;144217.56;;;4.03;100.00
28354;BME280;15603;50.878;8.036;2023-02-20T04:26:19;144317.97;;;4.46;100.00
28354;BME280;15603;50.878;8.036;2023-02-20T04:28:50;144222.41;;;4.05;100.00
28354;BME280;15603;50.878;8.036;2023-02-20T04:31:19;144227.22;;;4.07;100.00
28354;BME280;15603;50.878;8.036;2023-02-20T04:33:48;144287.75;;;4.33;100.00
28354;BME280;15603;50.878;8.036;2023-02-20T04:36:20;144263.53;;;4.23;100.00
28354;BME280;15603;50.878;8.036;2023-02-20T04:38:48;144270.81;;;4.26;100.00
28354;BME280;15603;50.878;8.036;2023-02-20T04:41:18;144267.16;;;4.24;100.00
28354;BME280;15603;50.878;8.036;2023-02-20T04:43:46;144314.34;;;4.44;100.00
28354;BME280;15603;50.878;8.036;2023-02-20T04:46:14;144350.63;;;4.60;100.00
28354;BME280;15603;50.878;8.036;2023-02-20T04:48:42;144311.94;;;4.43;100.00
28354;BME280;15603;50.878;8.036;2023-02-20T04:51:09;144270.81;;;4.26;100.00
28354;BME280;15603;50.878;8.036;2023-02-20T04:53:37;144235.69;;;4.11;100.00
28354;BME280;15603;50.878;8.036;2023-02-20T04:56:04;144215.16;;;4.02;100.00
28354;BME280;15603;50.878;8.036;2023-02-20T04:58:34;144193.38;;;3.93;100.00
28354;BME280;15603;50.878;8.036;2023-02-20T05:01:12;144174.00;;;3.85;100.00
28354;BME280;15603;50.878;8.036;2023-02-20T05:03:40;144148.63;;;3.74;100.00
28354;BME280;15603;50.878;8.036;2023-02-20T05:06:07;144145.00;;;3.72;100.00
28354;BME280;15603;50.878;8.036;2023-02-20T05:08:35;144106.31;;;3.56;100.00
28354;BME280;15603;50.878;8.036;2023-02-20T05:11:02;144108.72;;;3.57;100.00
28354;BME280;15603;50.878;8.036;2023-02-20T05:13:30;144101.44;;;3.54;100.00
28354;BME280;15603;50.878;8.036;2023-02-20T05:15:57;144091.78;;;3.50;100.00
28354;BME280;15603;50.878;8.036;2023-02-20T05:18:25;144101.44;;;3.54;100.00
28354;BME280;15603;50.878;8.036;2023-02-20T05:20:53;143975.75;;;3.01;100.00
28354;BME280;15603;50.878;8.036;2023-02-20T05:23:39;143900.78;;;2.69;100.00
28354;BME280;15603;50.878;8.036;2023-02-20T05:26:10;144037.38;;;3.27;100.00
28354;BME280;15603;50.878;8.036;2023-02-20T05:28:38;144043.44;;;3.29;100.00
28354;BME280;15603;50.878;8.036;2023-02-20T05:31:08;144004.72;;;3.13;100.00
28354;BME280;15603;50.878;8.036;2023-02-20T05:33:35;144047.03;;;3.31;100.00
28354;BME280;15603;50.878;8.036;2023-02-20T05:36:02;144041.00;;;3.28;100.00
28354;BME280;15603;50.878;8.036;2023-02-20T05:38:29;144045.81;;;3.30;100.00
28354;BME280;15603;50.878;8.036;2023-02-20T05:40:57;144059.13;;;3.36;100.00
28354;BME280;15603;50.878;8.036;2023-02-20T05:43:24;143956.38;;;2.92;100.00
28354;BME280;15603;50.878;8.036;2023-02-20T05:45:51;144060.34;;;3.37;100.00
28354;BME280;15603;50.878;8.036;2023-02-20T05:48:18;144068.78;;;3.40;100.00
28354;BME280;15603;50.878;8.036;2023-02-20T05:50:45;144062.78;;;3.38;100.00
28354;BME280;15603;50.878;8.036;2023-02-20T05:53:16;143912.88;;;2.74;100.00
28354;BME280;15603;50.878;8.036;2023-02-20T05:55:43;144062.78;;;3.38;100.00
28354;BME280;15603;50.878;8.036;2023-02-20T05:58:10;144061.56;;;3.37;100.00
28354;BME280;15603;50.878;8.036;2023-02-20T06:00:37;144039.81;;;3.28;100.00
28354;BME280;15603;50.878;8.036;2023-02-20T06:03:06;144043.44;;;3.29;100.00
28354;BME280;15603;50.878;8.036;2023-02-20T06:05:33;144041.00;;;3.28;100.00
28354;BME280;15603;50.878;8.036;2023-02-20T06:08:00;144065.16;;;3.39;100.00
28354;BME280;15603;50.878;8.036;2023-02-20T06:10:28;144099.03;;;3.53;100.00
28354;BME280;15603;50.878;8.036;2023-02-20T06:12:55;144062.78;;;3.38;100.00
28354;BME280;15603;50.878;8.036;2023-02-20T06:15:22;143956.38;;;2.92;100.00
28354;BME280;15603;50.878;8.036;2023-02-20T06:17:49;143999.91;;;3.11;100.00
28354;BME280;15603;50.878;8.036;2023-02-20T06:20:16;144043.44;;;3.29;100.00
28354;BME280;15603;50.878;8.036;2023-02-20T06:22:43;143978.13;;;3.02;100.00
28354;BME280;15603;50.878;8.036;2023-02-20T06:25:10;144026.50;;;3.22;100.00
28354;BME280;15603;50.878;8.036;2023-02-20T06:27:40;144009.56;;;3.15;100.00
28354;BME280;15603;50.878;8.036;2023-02-20T06:30:07;143910.44;;;2.73;100.00
28354;BME280;15603;50.878;8.036;2023-02-20T06:32:34;144002.34;;;3.12;100.00
28354;BME280;15603;50.878;8.036;2023-02-20T06:35:02;143982.97;;;3.04;100.00
28354;BME280;15603;50.878;8.036;2023-02-20T06:37:29;143990.25;;;3.07;100.00
28354;BME280;15603;50.878;8.036;2023-02-20T06:39:56;143973.31;;;3.00;100.00
28354;BME280;15603;50.878;8.036;2023-02-20T06:42:23;143995.06;;;3.09;100.00
28354;BME280;15603;50.878;8.036;2023-02-20T06:44:50;143991.44;;;3.07;100.00
28354;BME280;15603;50.878;8.036;2023-02-20T06:47:17;144007.16;;;3.14;100.00
28354;BME280;15603;50.878;8.036;2023-02-20T06:49:44;144021.66;;;3.20;100.00
28354;BME280;15603;50.878;8.036;2023-02-20T06:52:11;144025.31;;;3.22;100.00
28354;BME280;15603;50.878;8.036;2023-02-20T06:54:39;144021.66;;;3.20;100.00
28354;BME280;15603;50.878;8.036;2023-02-20T06:57:06;143973.31;;;3.00;100.00
28354;BME280;15603;50.878;8.036;2023-02-20T06:59:33;144009.56;;;3.15;100.00
28354;BME280;15603;50.878;8.036;2023-02-20T07:02:10;144055.50;;;3.34;100.00
28354;BME280;15603;50.878;8.036;2023-02-20T07:04:38;144056.75;;;3.35;100.00
28354;BME280;15603;50.878;8.036;2023-02-20T07:07:05;144066.41;;;3.39;100.00
28354;BME280;15603;50.878;8.036;2023-02-20T07:09:32;144055.50;;;3.34;100.00
28354;BME280;15603;50.878;8.036;2023-02-20T07:11:59;144082.09;;;3.46;100.00
28354;BME280;15603;50.878;8.036;2023-02-20T07:14:27;144083.28;;;3.46;100.00
28354;BME280;15603;50.878;8.036;2023-02-20T07:16:54;144099.03;;;3.53;100.00
28354;BME280;15603;50.878;8.036;2023-02-20T07:19:21;144113.53;;;3.59;100.00
28354;BME280;15603;50.878;8.036;2023-02-20T07:21:48;144147.44;;;3.73;100.00
28354;BME280;15603;50.878;8.036;2023-02-20T07:24:15;144149.81;;;3.74;100.00
28354;BME280;15603;50.878;8.036;2023-02-20T07:26:42;144128.03;;;3.65;100.00
28354;BME280;15603;50.878;8.036;2023-02-20T07:29:11;144043.44;;;3.29;100.00
28354;BME280;15603;50.878;8.036;2023-02-20T07:31:39;144147.44;;;3.73;100.00
28354;BME280;15603;50.878;8.036;2023-02-20T07:34:06;144106.31;;;3.56;100.00
28354;BME280;15603;50.878;8.036;2023-02-20T07:36:36;144159.50;;;3.79;100.00
28354;BME280;15603;50.878;8.036;2023-02-20T07:39:04;144183.72;;;3.89;100.00
28354;BME280;15603;50.878;8.036;2023-02-20T07:41:32;144199.41;;;3.96;100.00
28354;BME280;15603;50.878;8.036;2023-02-20T07:44:03;144209.09;;;4.00;100.00
28354;BME280;15603;50.878;8.036;2023-02-20T07:46:31;144213.91;;;4.02;100.00
28354;BME280;15603;50.878;8.036;2023-02-20T07:49:01;144251.47;;;4.18;100.00
28354;BME280;15603;50.878;8.036;2023-02-20T07:51:29;144157.09;;;3.78;100.00
28354;BME280;15603;50.878;8.036;2023-02-20T07:53:56;144265.97;;;4.24;100.00
28354;BME280;15603;50.878;8.036;2023-02-20T07:56:24;144264.72;;;4.23;100.00
28354;BME280;15603;50.878;8.036;2023-02-20T07:58:51;144242.97;;;4.14;100.00
28354;BME280;15603;50.878;8.036;2023-02-20T08:01:18;144234.50;;;4.10;100.00
28354;BME280;15603;50.878;8.036;2023-02-20T08:03:46;144249.00;;;4.17;100.00
28354;BME280;15603;50.878;8.036;2023-02-20T08:06:16;144273.19;;;4.27;100.00
28354;BME280;15603;50.878;8.036;2023-02-20T08:08:50;144268.34;;;4.25;100.00
28354;BME280;15603;50.878;8.036;2023-02-20T08:11:20;144278.03;;;4.29;100.00
28354;BME280;15603;50.878;8.036;2023-02-20T08:13:48;144264.72;;;4.23;100.00
28354;BME280;15603;50.878;8.036;2023-02-20T08:16:16;144274.44;;;4.27;100.00
28354;BME280;15603;50.878;8.036;2023-02-20T08:18:43;144265.97;;;4.24;100.00
28354;BME280;15603;50.878;8.036;2023-02-20T08:21:10;144294.97;;;4.36;100.00
28354;BME280;15603;50.878;8.036;2023-02-20T08:23:37;144322.81;;;4.48;100.00
28354;BME280;15603;50.878;8.036;2023-02-20T08:26:05;144296.19;;;4.37;100.00
28354;BME280;15603;50.878;8.036;2023-02-20T08:28:32;144302.25;;;4.39;100.00
28354;BME280;15603;50.878;8.036;2023-02-20T08:30:59;144340.97;;;4.56;100.00
28354;BME280;15603;50.878;8.036;2023-02-20T08:33:26;144228.44;;;4.08;100.00
28354;BME280;15603;50.878;8.036;2023-02-20T08:35:53;144338.56;;;4.55;100.00
28354;BME280;15603;50.878;8.036;2023-02-20T08:38:34;144348.25;;;4.59;100.00
28354;BME280;15603;50.878;8.036;2023-02-20T08:41:04;144418.41;;;4.88;100.00
28354;BME280;15603;50.878;8.036;2023-02-20T08:43:34;144474.13;;;5.12;100.00
28354;BME280;15603;50.878;8.036;2023-02-20T08:46:01;144532.22;;;5.37;100.00
28354;BME280;15603;50.878;8.036;2023-02-20T08:48:29;144541.88;;;5.41;100.00
28354;BME280;15603;50.878;8.036;2023-02-20T08:50:56;144564.94;;;5.50;100.00
28354;BME280;15603;50.878;8.036;2023-02-20T08:53:23;144495.88;;;5.21;100.00
28354;BME280;15603;50.878;8.036;2023-02-20T08:55:51;144584.31;;;5.59;100.00
28354;BME280;15603;50.878;8.036;2023-02-20T08:58:22;144658.19;;;5.90;100.00
28354;BME280;15603;50.878;8.036;2023-02-20T09:00:50;144721.22;;;6.17;100.00
28354;BME280;15603;50.878;8.036;2023-02-20T09:03:17;144684.88;;;6.01;100.00
28354;BME280;15603;50.878;8.036;2023-02-20T09:05:44;144798.78;;;6.49;100.00
28354;BME280;15603;50.878;8.036;2023-02-20T09:08:12;144795.13;;;6.48;100.00
28354;BME280;15603;50.878;8.036;2023-02-20T09:10:39;144825.44;;;6.61;100.00
28354;BME280;15603;50.878;8.036;2023-02-20T09:13:07;144873.94;;;6.81;100.00
28354;BME280;15603;50.878;8.036;2023-02-20T09:15:34;144878.78;;;6.83;100.00
28354;BME280;15603;50.878;8.036;2023-02-20T09:18:07;144986.66;;;7.29;100.00
28354;BME280;15603;50.878;8.036;2023-02-20T09:20:36;144953.94;;;7.15;100.00
28354;BME280;15603;50.878;8.036;2023-02-20T09:23:04;145041.22;;;7.52;100.00
28354;BME280;15603;50.878;8.036;2023-02-20T09:25:32;145033.97;;;7.49;100.00
28354;BME280;15603;50.878;8.036;2023-02-20T09:27:59;145026.69;;;7.46;100.00
28354;BME280;15603;50.878;8.036;2023-02-20T09:30:26;145053.38;;;7.57;100.00
28354;BME280;15603;50.878;8.036;2023-02-20T09:32:53;145121.31;;;7.86;100.00
28354;BME280;15603;50.878;8.036;2023-02-20T09:35:28;145135.84;;;7.92;100.00
28354;BME280;15603;50.878;8.036;2023-02-20T09:37:55;145046.06;;;7.54;96.95
28354;BME280;15603;50.878;8.036;2023-02-20T09:40:25;145156.50;;;8.01;98.34
28354;BME280;15603;50.878;8.036;2023-02-20T09:42:59;145197.75;;;8.18;98.07
28354;BME280;15603;50.878;8.036;2023-02-20T09:45:32;145205.00;;;8.21;97.09
28354;BME280;15603;50.878;8.036;2023-02-20T09:51:02;145155.25;;;8.00;95.03
28354;BME280;15603;50.878;8.036;2023-02-20T09:53:57;145256.03;;;8.43;95.65
28354;BME280;15603;50.878;8.036;2023-02-20T09:56:37;145297.31;;;8.60;93.53
28354;BME280;15603;50.878;8.036;2023-02-20T09:59:17;145288.81;;;8.57;93.35
28354;BME280;15603;50.878;8.036;2023-02-20T10:01:55;145203.78;;;8.21;93.06
28354;BME280;15603;50.878;8.036;2023-02-20T10:04:30;145161.34;;;8.03;95.39
28354;BME280;15603;50.878;8.036;2023-02-20T10:07:33;145281.50;;;8.54;95.87
28354;BME280;15603;50.878;8.036;2023-02-20T10:10:16;145297.31;;;8.60;93.13
28354;BME280;15603;50.878;8.036;2023-02-20T10:15:44;145317.91;;;8.69;93.04
28354;BME280;15603;50.878;8.036;2023-02-20T10:18:32;145320.38;;;8.70;91.82
28354;BME280;15603;50.878;8.036;2023-02-20T10:21:20;145359.19;;;8.87;92.88
28354;BME280;15603;50.878;8.036;2023-02-20T10:23:51;145334.94;;;8.76;90.76
28354;BME280;15603;50.878;8.036;2023-02-20T10:26:34;145356.78;;;8.86;92.48
28354;BME280;15603;50.878;8.036;2023-02-20T10:29:15;145402.91;;;9.05;90.95
28354;BME280;15603;50.878;8.036;2023-02-20T10:32:02;145405.31;;;9.06;91.07
28354;BME280;15603;50.878;8.036;2023-02-20T10:34:39;145451.44;;;9.26;90.04
28354;BME280;15603;50.878;8.036;2023-02-20T10:37:11;145435.69;;;9.19;87.90
28354;BME280;15603;50.878;8.036;2023-02-20T10:40:15;145451.44;;;9.26;89.17
28354;BME280;15603;50.878;8.036;2023-02-20T10:42:58;145330.06;;;8.74;88.30
28354;BME280;15603;50.878;8.036;2023-02-20T10:45:41;145418.69;;;9.12;87.04
28354;BME280;15603;50.878;8.036;2023-02-20T10:48:12;145378.59;;;8.95;88.16
28354;BME280;15603;50.878;8.036;2023-02-20T10:53:46;145408.97;;;9.08;87.80
28354;BME280;15603;50.878;8.036;2023-02-20T10:56:29;145439.34;;;9.20;90.20
28354;BME280;15603;50.878;8.036;2023-02-20T11:01:30;145520.72;;;9.55;86.78
28354;BME280;15603;50.878;8.036;2023-02-20T11:04:09;145487.88;;;9.41;88.27
28354;BME280;15603;50.878;8.036;2023-02-20T11:06:46;145572.91;;;9.77;86.79
28354;BME280;15603;50.878;8.036;2023-02-20T11:09:15;145589.94;;;9.84;84.50
28354;BME280;15603;50.878;8.036;2023-02-20T11:11:44;145596.00;;;9.87;85.35
28354;BME280;15603;50.878;8.036;2023-02-20T11:14:14;145648.28;;;10.09;84.70
28354;BME280;15603;50.878;8.036;2023-02-20T11:16:51;145650.66;;;10.10;84.70
28354;BME280;15603;50.878;8.036;2023-02-20T11:19:22;145650.66;;;10.10;86.25
28354;BME280;15603;50.878;8.036;2023-02-20T11:21:51;145650.66;;;10.10;85.79
28354;BME280;15603;50.878;8.036;2023-02-20T11:26:55;145606.97;;;9.91;82.96
28354;BME280;15603;50.878;8.036;2023-02-20T11:29:24;145609.38;;;9.92;83.92
28354;BME280;15603;50.878;8.036;2023-02-20T11:31:53;145651.88;;;10.10;84.79
28354;BME280;15603;50.878;8.036;2023-02-20T11:34:23;145628.78;;;10.00;83.71
28354;BME280;15603;50.878;8.036;2023-02-20T11:36:53;145626.38;;;9.99;84.42
28354;BME280;15603;50.878;8.036;2023-02-20T11:39:27;145665.25;;;10.16;84.31
28354;BME280;15603;50.878;8.036;2023-02-20T11:42:11;145762.53;;;10.57;82.89
28354;BME280;15603;50.878;8.036;2023-02-20T11:44:41;145735.78;;;10.46;81.59
28354;BME280;15603;50.878;8.036;2023-02-20T11:47:17;145739.44;;;10.47;81.93
28354;BME280;15603;50.878;8.036;2023-02-20T11:49:46;145796.56;;;10.71;80.16
28354;BME280;15603;50.878;8.036;2023-02-20T11:52:19;145837.88;;;10.89;79.23
28354;BME280;15603;50.878;8.036;2023-02-20T11:55:08;145769.81;;;10.60;81.25
28354;BME280;15603;50.878;8.036;2023-02-20T11:57:43;145820.84;;;10.81;81.42
28354;BME280;15603;50.878;8.036;2023-02-20T12:00:29;145837.88;;;10.89;79.32
28354;BME280;15603;50.878;8.036;2023-02-20T12:05:42;145888.94;;;11.10;78.55
28354;BME280;15603;50.878;8.036;2023-02-20T12:08:23;145881.66;;;11.07;79.33
28354;BME280;15603;50.878;8.036;2023-02-20T12:10:58;145871.94;;;11.03;79.11
28354;BME280;15603;50.878;8.036;2023-02-20T12:13:27;145847.59;;;10.93;79.46
28354;BME280;15603;50.878;8.036;2023-02-20T12:15:59;145747.97;;;10.51;81.29
28354;BME280;15603;50.878;8.036;2023-02-20T12:18:40;145818.44;;;10.80;79.42
28354;BME280;15603;50.878;8.036;2023-02-20T12:21:26;145830.63;;;10.86;81.39
28354;BME280;15603;50.878;8.036;2023-02-20T12:24:11;145777.13;;;10.63;82.66
28354;BME280;15603;50.878;8.036;2023-02-20T12:26:50;145794.16;;;10.70;80.31
28354;BME280;15603;50.878;8.036;2023-02-20T12:29:37;145799.00;;;10.72;79.36
28354;BME280;15603;50.878;8.036;2023-02-20T12:32:16;145799.00;;;10.72;81.14
28354;BME280;15603;50.878;8.036;2023-02-20T12:42:59;145879.22;;;11.06;76.66
28354;BME280;15603;50.878;8.036;2023-02-20T12:45:39;145830.63;;;10.86;78.01
28354;BME280;15603;50.878;8.036;2023-02-20T12:48:40;145786.84;;;10.67;79.56
28354;BME280;15603;50.878;8.036;2023-02-20T12:54:12;145813.59;;;10.78;81.06
28354;BME280;15603;50.878;8.036;2023-02-20T12:56:51;145796.56;;;10.71;82.32
28354;BME280;15603;50.878;8.036;2023-02-20T12:59:40;145867.09;;;11.01;82.03
28354;BME280;15603;50.878;8.036;2023-02-20T13:05:10;145918.16;;;11.23;80.81
28354;BME280;15603;50.878;8.036;2023-02-20T13:07:46;145958.28;;;11.39;81.21
28354;BME280;15603;50.878;8.036;2023-02-20T13:10:26;145923.00;;;11.25;81.35
28354;BME280;15603;50.878;8.036;2023-02-20T13:12:54;145998.38;;;11.56;80.75
28354;BME280;15603;50.878;8.036;2023-02-20T13:15:35;146073.81;;;11.88;81.45
28354;BME280;15603;50.878;8.036;2023-02-20T13:18:26;146065.31;;;11.85;78.55
28354;BME280;15603;50.878;8.036;2023-02-20T13:21:04;145957.03;;;11.39;80.28
28354;BME280;15603;50.878;8.036;2023-02-20T13:23:34;145978.94;;;11.48;80.74
28354;BME280;15603;50.878;8.036;2023-02-20T13:26:03;145977.72;;;11.48;80.91
28354;BME280;15603;50.878;8.036;2023-02-20T13:28:50;145998.38;;;11.56;80.77
28354;BME280;15603;50.878;8.036;2023-02-20T13:31:42;145817.25;;;10.80;81.38
28354;BME280;15603;50.878;8.036;2023-02-20T13:36:47;145971.66;;;11.45;82.76
28354;BME280;15603;50.878;8.036;2023-02-20T14:02:51;146089.66;;;11.95;81.09
28354;BME280;15603;50.878;8.036;2023-02-20T14:05:25;145992.31;;;11.54;82.97
28354;BME280;15603;50.878;8.036;2023-02-20T14:07:53;146011.78;;;11.62;83.67
28354;BME280;15603;50.878;8.036;2023-02-20T14:10:30;146005.69;;;11.59;83.59
28354;BME280;15603;50.878;8.036;2023-02-20T14:15:25;145940.03;;;11.32;84.12
28354;BME280;15603;50.878;8.036;2023-02-20T14:17:55;145983.81;;;11.50;84.99
28354;BME280;15603;50.878;8.036;2023-02-20T14:20:32;145993.53;;;11.54;85.81
28354;BME280;15603;50.878;8.036;2023-02-20T14:23:07;145974.06;;;11.46;86.04
28354;BME280;15603;50.878;8.036;2023-02-20T14:25:34;145837.88;;;10.89;87.09